createdAt,value
2019-02-06T00:01:07.484Z,0.60
2019-02-06T00:03:36.623Z,0.60
2019-02-06T00:06:06.308Z,0.60
2019-02-06T00:08:35.135Z,0.70
2019-02-06T00:11:04.075Z,0.70
2019-02-06T00:13:34.647Z,0.80
2019-02-06T00:16:03.369Z,0.80
2019-02-06T00:18:32.150Z,0.80
2019-02-06T00:21:00.863Z,0.70
2019-02-06T00:23:29.987Z,0.70
2019-02-06T00:25:58.723Z,0.70
2019-02-06T00:28:27.442Z,0.70
2019-02-06T00:30:56.083Z,0.70
2019-02-06T00:33:25.010Z,0.80
2019-02-06T00:35:53.651Z,0.90
2019-02-06T00:38:22.365Z,0.90
2019-02-06T00:40:51.241Z,0.90
2019-02-06T00:43:19.959Z,0.80
2019-02-06T00:45:48.655Z,0.80
2019-02-06T00:48:17.573Z,0.90
2019-02-06T00:50:46.396Z,0.90
2019-02-06T00:53:15.115Z,0.90
2019-02-06T00:55:43.786Z,0.80
2019-02-06T00:58:12.711Z,0.90
2019-02-06T01:00:41.883Z,0.80
2019-02-06T01:03:13.997Z,0.80
2019-02-06T01:05:42.696Z,0.80
2019-02-06T01:08:11.803Z,0.80
2019-02-06T01:10:40.609Z,0.70
2019-02-06T01:13:09.253Z,0.60
2019-02-06T01:15:39.133Z,0.70
2019-02-06T01:18:07.891Z,0.70
2019-02-06T01:20:36.813Z,0.70
2019-02-06T01:23:05.519Z,0.70
2019-02-06T01:25:34.340Z,0.80
2019-02-06T01:28:03.149Z,0.90
2019-02-06T01:30:36.203Z,0.80
2019-02-06T01:33:05.146Z,0.90
2019-02-06T01:35:33.804Z,0.80
2019-02-06T01:38:02.450Z,0.80
2019-02-06T01:40:31.189Z,0.70
2019-02-06T01:42:59.819Z,0.70
2019-02-06T01:45:28.852Z,0.70
2019-02-06T01:47:58.026Z,0.60
2019-02-06T01:50:26.656Z,0.60
2019-02-06T01:52:55.369Z,0.50
2019-02-06T01:55:23.972Z,0.50
2019-02-06T01:57:52.616Z,0.50
2019-02-06T02:00:23.854Z,0.50
2019-02-06T02:02:53.292Z,0.40
2019-02-06T02:05:22.909Z,0.50
2019-02-06T02:07:52.320Z,0.40
2019-02-06T02:10:21.664Z,0.40
2019-02-06T02:12:50.678Z,0.50
2019-02-06T02:15:20.300Z,0.60
2019-02-06T02:17:49.616Z,0.70
2019-02-06T02:20:20.522Z,0.70
2019-02-06T02:22:49.232Z,0.70
2019-02-06T02:25:18.342Z,0.70
2019-02-06T02:27:47.152Z,0.70
2019-02-06T02:30:23.336Z,0.70
2019-02-06T02:32:52.454Z,0.60
2019-02-06T02:35:21.432Z,0.70
2019-02-06T02:37:50.128Z,0.60
2019-02-06T02:40:18.731Z,0.60
2019-02-06T02:42:48.767Z,0.70
2019-02-06T02:45:18.893Z,0.80
2019-02-06T02:47:48.576Z,0.80
2019-02-06T02:50:17.281Z,0.70
2019-02-06T02:52:46.058Z,0.70
2019-02-06T02:55:15.236Z,0.70
2019-02-06T02:57:44.074Z,0.70
2019-02-06T03:00:37.469Z,0.80
2019-02-06T03:03:08.343Z,0.80
2019-02-06T03:05:37.045Z,0.80
2019-02-06T03:08:05.895Z,0.80
2019-02-06T03:10:34.548Z,0.80
2019-02-06T03:13:04.089Z,0.90
2019-02-06T03:15:32.867Z,0.90
2019-02-06T03:18:01.566Z,0.90
2019-02-06T03:20:30.371Z,1.00
2019-02-06T03:22:59.290Z,1.00
2019-02-06T03:25:27.987Z,1.00
2019-02-06T03:27:56.701Z,1.00
2019-02-06T03:30:25.867Z,0.90
2019-02-06T03:32:54.814Z,1.00
2019-02-06T03:35:23.377Z,1.00
2019-02-06T03:37:52.427Z,1.00
2019-02-06T03:40:21.119Z,0.90
2019-02-06T03:42:49.937Z,0.80
2019-02-06T03:45:19.178Z,0.80
2019-02-06T03:47:47.877Z,0.70
2019-02-06T03:50:20.576Z,0.60
2019-02-06T03:52:49.737Z,0.50
2019-02-06T03:55:18.449Z,0.40
2019-02-06T03:57:47.165Z,0.40
2019-02-06T04:00:20.494Z,0.30
2019-02-06T04:02:49.217Z,0.30
2019-02-06T04:05:18.310Z,0.20
2019-02-06T04:07:47.354Z,0.40
2019-02-06T04:10:17.843Z,0.40
2019-02-06T04:12:46.534Z,0.50
2019-02-06T04:15:16.336Z,0.50
2019-02-06T04:17:45.063Z,0.50
2019-02-06T04:20:17.588Z,0.60
2019-02-06T04:22:46.343Z,0.60
2019-02-06T04:25:15.655Z,0.70
2019-02-06T04:27:44.477Z,0.60
2019-02-06T04:30:19.892Z,0.70
2019-02-06T04:32:48.902Z,0.70
2019-02-06T04:35:17.796Z,0.80
2019-02-06T04:37:46.668Z,0.80
2019-02-06T04:40:20.288Z,0.80
2019-02-06T04:42:49.486Z,0.90
2019-02-06T04:45:19.452Z,0.90
2019-02-06T04:47:48.171Z,0.90
2019-02-06T04:50:18.638Z,1.00
2019-02-06T04:52:47.477Z,0.90
2019-02-06T04:55:17.386Z,0.90
2019-02-06T04:57:46.390Z,1.00
2019-02-06T05:00:20.701Z,1.00
2019-02-06T05:02:49.403Z,1.00
2019-02-06T05:05:18.130Z,1.00
2019-02-06T05:07:46.878Z,1.10
2019-02-06T05:10:15.695Z,1.00
2019-02-06T05:12:44.693Z,1.00
2019-02-06T05:15:15.533Z,1.00
2019-02-06T05:17:44.416Z,1.00
2019-02-06T05:20:19.031Z,1.00
2019-02-06T05:22:47.733Z,0.90
2019-02-06T05:25:16.364Z,0.90
2019-02-06T05:27:45.453Z,0.90
2019-02-06T05:30:15.831Z,0.90
2019-02-06T05:32:44.539Z,0.90
2019-02-06T05:35:13.385Z,0.90
2019-02-06T05:37:42.127Z,0.90
2019-02-06T05:40:11.816Z,0.90
2019-02-06T05:42:40.904Z,0.90
2019-02-06T05:45:13.321Z,0.90
2019-02-06T05:47:41.963Z,0.90
2019-02-06T05:50:16.955Z,0.90
2019-02-06T05:52:45.670Z,0.80
2019-02-06T05:55:16.379Z,0.90
2019-02-06T05:57:45.727Z,0.90
2019-02-06T06:00:21.581Z,0.90
2019-02-06T06:02:50.335Z,0.90
2019-02-06T06:05:19.147Z,0.90
2019-02-06T06:07:47.830Z,0.90
2019-02-06T06:10:18.392Z,0.90
2019-02-06T06:12:47.674Z,0.90
2019-02-06T06:15:18.815Z,1.00
2019-02-06T06:17:47.563Z,1.00
2019-02-06T06:20:18.367Z,1.00
2019-02-06T06:22:47.073Z,0.90
2019-02-06T06:25:18.077Z,1.00
2019-02-06T06:27:47.097Z,1.00
2019-02-06T06:30:23.443Z,1.00
2019-02-06T06:32:52.378Z,1.00
2019-02-06T06:35:23.957Z,1.00
2019-02-06T06:37:59.734Z,1.00
2019-02-06T06:40:23.785Z,1.10
2019-02-06T06:42:55.279Z,1.10
2019-02-06T06:45:25.425Z,1.10
2019-02-06T06:47:55.420Z,1.20
2019-02-06T06:50:28.453Z,1.20
2019-02-06T06:52:57.663Z,1.20
2019-02-06T06:55:27.192Z,1.20
2019-02-06T06:57:55.829Z,1.30
2019-02-06T07:00:26.874Z,1.30
2019-02-06T07:02:55.682Z,1.30
2019-02-06T07:05:24.494Z,1.30
2019-02-06T07:07:53.620Z,1.30
2019-02-06T07:10:22.569Z,1.20
2019-02-06T07:12:51.594Z,1.30
2019-02-06T07:15:23.482Z,1.30
2019-02-06T07:17:54.229Z,1.30
2019-02-06T07:20:23.210Z,1.30
2019-02-06T07:22:52.544Z,1.30
2019-02-06T07:25:21.649Z,1.40
2019-02-06T07:27:53.008Z,1.40
2019-02-06T07:30:27.290Z,1.50
2019-02-06T07:32:56.594Z,1.50
2019-02-06T07:35:25.294Z,1.60
2019-02-06T07:37:54.330Z,1.60
2019-02-06T07:40:23.044Z,1.60
2019-02-06T07:42:51.763Z,1.60
2019-02-06T07:45:25.106Z,1.70
2019-02-06T07:47:56.042Z,1.70
2019-02-06T07:50:33.717Z,1.70
2019-02-06T07:53:02.423Z,1.80
2019-02-06T07:55:36.031Z,1.80
2019-02-06T07:58:04.782Z,1.80
2019-02-06T08:00:35.133Z,1.90
2019-02-06T08:03:03.861Z,2.00
2019-02-06T08:05:35.274Z,2.10
2019-02-06T08:08:04.239Z,2.20
2019-02-06T08:10:35.353Z,2.30
2019-02-06T08:13:05.259Z,2.30
2019-02-06T08:15:36.641Z,2.30
2019-02-06T08:18:06.953Z,2.40
2019-02-06T08:20:38.971Z,2.40
2019-02-06T08:23:07.636Z,2.40
2019-02-06T08:25:39.258Z,2.50
2019-02-06T08:28:08.195Z,2.50
2019-02-06T08:30:39.308Z,2.60
2019-02-06T08:33:10.933Z,2.60
2019-02-06T08:35:42.424Z,2.70
2019-02-06T08:38:12.280Z,2.80
2019-02-06T08:40:46.859Z,2.90
2019-02-06T08:43:15.378Z,2.90
2019-02-06T08:45:45.443Z,2.90
2019-02-06T08:48:14.235Z,2.90
2019-02-06T08:50:42.989Z,2.90
2019-02-06T08:53:11.725Z,2.90
2019-02-06T08:55:40.434Z,3.00
2019-02-06T08:58:10.921Z,3.10
2019-02-06T09:00:42.211Z,3.00
2019-02-06T09:03:13.842Z,3.00
2019-02-06T09:05:43.119Z,3.00
2019-02-06T09:08:11.841Z,3.00
2019-02-06T09:10:40.656Z,3.00
2019-02-06T09:13:09.466Z,2.90
2019-02-06T09:15:40.328Z,3.00
2019-02-06T09:18:11.094Z,3.10
2019-02-06T09:20:39.890Z,3.00
2019-02-06T09:23:10.670Z,3.20
2019-02-06T09:25:41.617Z,3.20
2019-02-06T09:28:10.791Z,3.30
2019-02-06T09:30:39.495Z,3.40
2019-02-06T09:33:12.935Z,3.80
2019-02-06T09:35:41.910Z,3.90
2019-02-06T09:38:16.064Z,4.10
2019-02-06T09:40:44.900Z,4.10
2019-02-06T09:43:13.644Z,3.90
2019-02-06T09:45:42.465Z,3.80
2019-02-06T09:48:12.639Z,3.80
2019-02-06T09:50:41.365Z,3.90
2019-02-06T09:53:10.281Z,3.90
2019-02-06T09:55:38.929Z,3.90
2019-02-06T09:58:07.987Z,4.00
2019-02-06T10:00:40.396Z,4.10
2019-02-06T10:03:10.120Z,4.20
2019-02-06T10:05:40.350Z,4.30
2019-02-06T10:08:11.611Z,4.30
2019-02-06T10:10:42.366Z,4.30
2019-02-06T10:13:11.114Z,4.30
2019-02-06T10:15:47.832Z,4.40
2019-02-06T10:18:17.615Z,4.40
2019-02-06T10:20:51.196Z,4.50
2019-02-06T10:23:21.662Z,4.50
2019-02-06T10:25:53.478Z,4.50
2019-02-06T10:28:25.444Z,4.50
2019-02-06T10:30:54.167Z,4.50
2019-02-06T10:33:23.883Z,4.50
2019-02-06T10:35:55.305Z,4.50
2019-02-06T10:38:24.956Z,4.50
2019-02-06T10:40:55.668Z,4.40
2019-02-06T10:43:31.788Z,4.50
2019-02-06T10:45:55.204Z,4.60
2019-02-06T10:48:30.799Z,4.60
2019-02-06T10:51:00.012Z,4.60
2019-02-06T10:53:30.757Z,4.60
2019-02-06T10:56:00.333Z,4.80
2019-02-06T10:58:31.506Z,4.90
2019-02-06T11:01:00.753Z,5.00
2019-02-06T11:03:29.456Z,5.00
2019-02-06T11:05:59.607Z,4.90
2019-02-06T11:08:28.318Z,4.90
2019-02-06T11:10:57.507Z,4.90
2019-02-06T11:13:26.659Z,4.80
2019-02-06T11:15:55.390Z,4.70
2019-02-06T11:18:44.453Z,4.70
2019-02-06T11:21:02.471Z,4.80
2019-02-06T11:23:32.368Z,4.80
2019-02-06T11:26:04.236Z,4.80
2019-02-06T11:28:32.991Z,4.90
2019-02-06T11:31:01.927Z,5.00
2019-02-06T11:33:30.629Z,5.00
2019-02-06T11:36:00.459Z,4.80
2019-02-06T11:38:32.277Z,4.90
2019-02-06T11:41:06.492Z,4.90
2019-02-06T11:43:39.378Z,4.90
2019-02-06T11:46:10.928Z,4.90
2019-02-06T11:48:43.342Z,4.90
2019-02-06T11:51:14.184Z,4.80
2019-02-06T11:53:42.936Z,4.70
2019-02-06T11:56:11.854Z,4.70
2019-02-06T11:58:42.667Z,4.70
2019-02-06T12:01:13.075Z,4.70
2019-02-06T12:03:42.018Z,4.80
2019-02-06T12:06:11.417Z,4.80
2019-02-06T12:08:42.773Z,4.80
2019-02-06T12:11:14.433Z,4.80
2019-02-06T12:13:43.172Z,4.80
2019-02-06T12:16:14.691Z,4.70
2019-02-06T12:18:45.848Z,4.70
2019-02-06T12:21:17.797Z,4.70
2019-02-06T12:23:48.659Z,4.70
2019-02-06T12:26:17.603Z,4.70
2019-02-06T12:28:46.298Z,4.70
2019-02-06T12:31:15.427Z,4.80
2019-02-06T12:33:44.130Z,4.90
2019-02-06T12:36:25.973Z,5.00
2019-02-06T12:38:54.872Z,5.10
2019-02-06T12:41:25.220Z,5.20
2019-02-06T12:43:54.007Z,5.20
2019-02-06T12:46:23.110Z,5.10
2019-02-06T12:48:54.727Z,5.10
2019-02-06T12:51:26.191Z,5.00
2019-02-06T12:53:54.945Z,4.90
2019-02-06T12:56:23.590Z,5.00
2019-02-06T12:58:52.480Z,4.90
2019-02-06T13:01:21.230Z,4.90
2019-02-06T13:03:50.249Z,5.00
2019-02-06T13:06:26.728Z,5.00
2019-02-06T13:08:55.846Z,5.00
2019-02-06T13:11:25.941Z,5.00
2019-02-06T13:13:57.509Z,4.90
2019-02-06T13:16:26.331Z,4.90
2019-02-06T13:18:55.127Z,4.90
2019-02-06T13:21:29.959Z,4.90
2019-02-06T13:23:58.709Z,4.80
2019-02-06T13:26:30.327Z,4.80
2019-02-06T13:29:05.104Z,4.80
2019-02-06T13:31:35.299Z,4.90
2019-02-06T13:34:07.732Z,4.80
2019-02-06T13:36:42.187Z,4.80
2019-02-06T13:39:11.221Z,4.80
2019-02-06T13:41:42.642Z,4.90
2019-02-06T13:44:12.112Z,4.90
2019-02-06T13:46:52.777Z,4.90
2019-02-06T13:49:11.190Z,4.90
2019-02-06T13:51:40.185Z,4.90
2019-02-06T13:54:08.861Z,4.80
2019-02-06T13:56:43.273Z,4.80
2019-02-06T13:59:12.087Z,4.80
2019-02-06T14:01:49.612Z,4.90
2019-02-06T14:04:18.363Z,4.90
2019-02-06T14:06:47.425Z,4.90
2019-02-06T14:09:22.764Z,4.90
2019-02-06T14:11:47.397Z,5.00
2019-02-06T14:14:16.166Z,5.00
2019-02-06T14:16:53.380Z,5.00
2019-02-06T14:19:23.311Z,5.10
2019-02-06T14:21:53.712Z,5.10
2019-02-06T14:24:29.163Z,5.20
2019-02-06T14:27:03.409Z,5.30
2019-02-06T14:29:41.086Z,5.40
2019-02-06T14:32:29.670Z,5.50
2019-02-06T14:35:01.344Z,5.70
2019-02-06T14:37:48.260Z,5.90
2019-02-06T14:40:31.741Z,6.10
2019-02-06T14:43:09.132Z,6.10
2019-02-06T14:45:52.842Z,6.10
2019-02-06T14:48:36.419Z,6.10
2019-02-06T14:51:30.225Z,6.20
2019-02-06T14:54:10.727Z,6.20
2019-02-06T14:56:55.371Z,6.30
2019-02-06T14:59:35.921Z,6.40
2019-02-06T15:02:11.445Z,6.40
2019-02-06T15:05:13.766Z,6.30
2019-02-06T15:07:49.692Z,6.20
2019-02-06T15:10:26.285Z,6.10
2019-02-06T15:13:32.857Z,6.10
2019-02-06T15:16:29.115Z,6.00
2019-02-06T15:19:02.609Z,5.90
2019-02-06T15:21:40.106Z,5.90
2019-02-06T15:24:18.285Z,5.80
2019-02-06T15:27:09.466Z,5.80
2019-02-06T15:30:05.190Z,5.70
2019-02-06T15:32:51.692Z,5.70
2019-02-06T15:35:29.184Z,5.60
2019-02-06T15:38:09.843Z,5.60
2019-02-06T15:40:58.174Z,5.50
2019-02-06T15:43:45.252Z,5.40
2019-02-06T15:46:22.445Z,5.40
2019-02-06T15:49:10.886Z,5.30
2019-02-06T15:52:05.633Z,5.30
2019-02-06T15:55:10.561Z,5.20
2019-02-06T15:58:18.838Z,5.10
2019-02-06T16:01:08.819Z,5.10
2019-02-06T16:04:02.744Z,5.00
2019-02-06T16:06:51.093Z,5.00
2019-02-06T16:09:28.259Z,4.90
2019-02-06T16:12:19.704Z,4.90
2019-02-06T16:15:02.779Z,4.80
2019-02-06T16:17:43.810Z,4.70
2019-02-06T16:20:37.894Z,4.70
2019-02-06T16:23:18.293Z,4.60
2019-02-06T16:26:05.118Z,4.70
2019-02-06T16:28:53.597Z,4.60
2019-02-06T16:31:42.686Z,4.60
2019-02-06T16:34:34.210Z,4.60
2019-02-06T16:37:17.513Z,4.60
2019-02-06T16:40:05.294Z,4.50
2019-02-06T16:42:55.193Z,4.60
2019-02-06T16:45:36.578Z,4.50
2019-02-06T16:48:10.903Z,4.40
2019-02-06T16:51:03.826Z,4.40
2019-02-06T16:53:52.991Z,4.40
2019-02-06T16:56:44.313Z,4.40
2019-02-06T16:59:24.364Z,4.40
2019-02-06T17:02:13.999Z,4.30
2019-02-06T17:05:11.396Z,4.30
2019-02-06T17:07:49.219Z,4.30
2019-02-06T17:10:55.867Z,4.30
2019-02-06T17:13:42.636Z,4.30
2019-02-06T17:16:20.643Z,4.20
2019-02-06T17:19:02.241Z,4.10
2019-02-06T17:22:08.919Z,4.10
2019-02-06T17:25:03.145Z,4.00
2019-02-06T17:27:54.556Z,4.10
2019-02-06T17:30:36.717Z,4.00
2019-02-06T17:33:39.246Z,4.00
2019-02-06T17:36:35.834Z,4.00
2019-02-06T17:39:35.292Z,3.90
2019-02-06T17:42:42.633Z,3.80
2019-02-06T17:45:48.227Z,3.80
2019-02-06T17:48:30.898Z,3.70
2019-02-06T17:51:31.373Z,3.60
2019-02-06T17:54:25.179Z,3.70
2019-02-06T17:56:53.931Z,3.60
2019-02-06T17:59:22.647Z,3.50
2019-02-06T18:02:02.530Z,3.40
2019-02-06T18:04:31.228Z,3.40
2019-02-06T18:07:06.403Z,3.50
2019-02-06T18:09:37.761Z,3.50
2019-02-06T18:12:13.078Z,3.40
2019-02-06T18:14:49.611Z,3.30
2019-02-06T18:17:23.331Z,3.30
2019-02-06T18:19:54.604Z,3.20
2019-02-06T18:22:24.938Z,3.10
2019-02-06T18:24:56.644Z,3.10
2019-02-06T18:27:28.141Z,3.00
2019-02-06T18:30:01.917Z,3.10
2019-02-06T18:32:31.324Z,3.00
2019-02-06T18:35:03.703Z,3.00
2019-02-06T18:37:32.693Z,3.00
2019-02-06T18:40:09.457Z,3.00
2019-02-06T18:42:45.242Z,3.00
2019-02-06T18:45:27.927Z,3.10
2019-02-06T18:48:09.146Z,3.10
2019-02-06T18:50:44.276Z,3.10
2019-02-06T18:53:16.410Z,3.10
2019-02-06T18:55:47.230Z,3.10
2019-02-06T18:58:23.227Z,3.10
2019-02-06T19:00:58.176Z,3.10
2019-02-06T19:03:40.268Z,3.10
2019-02-06T19:06:10.869Z,3.00
2019-02-06T19:08:44.479Z,3.00
2019-02-06T19:11:16.842Z,3.00
2019-02-06T19:13:50.776Z,3.00
2019-02-06T19:16:22.250Z,3.10
2019-02-06T19:18:56.804Z,3.10
2019-02-06T19:21:31.920Z,3.10
2019-02-06T19:24:04.278Z,3.30
2019-02-06T19:26:32.983Z,3.30
2019-02-06T19:29:03.902Z,3.30
2019-02-06T19:31:33.017Z,3.30
2019-02-06T19:34:07.198Z,3.30
2019-02-06T19:36:38.927Z,3.30
2019-02-06T19:39:15.786Z,3.20
2019-02-06T19:41:47.832Z,3.20
2019-02-06T19:44:18.177Z,3.10
2019-02-06T19:46:53.291Z,3.10
2019-02-06T19:49:28.491Z,3.10
2019-02-06T19:52:05.466Z,3.10
2019-02-06T19:54:54.225Z,3.10
2019-02-06T19:57:26.133Z,3.00
2019-02-06T20:00:05.153Z,3.10
2019-02-06T20:02:37.979Z,3.00
2019-02-06T20:05:18.384Z,3.00
2019-02-06T20:07:53.811Z,3.00
2019-02-06T20:10:45.075Z,3.00
2019-02-06T20:13:17.843Z,3.10
2019-02-06T20:15:48.778Z,3.10
2019-02-06T20:18:23.363Z,3.10
2019-02-06T20:20:56.320Z,3.00
2019-02-06T20:23:27.907Z,3.00
2019-02-06T20:26:18.607Z,3.00
2019-02-06T20:28:48.703Z,3.10
2019-02-06T20:31:20.645Z,3.10
2019-02-06T20:33:58.195Z,3.00
2019-02-06T20:36:27.279Z,3.00
2019-02-06T20:39:00.855Z,3.00
2019-02-06T20:41:31.234Z,3.00
2019-02-06T20:44:04.236Z,3.00
2019-02-06T20:46:34.492Z,3.10
2019-02-06T20:49:03.260Z,3.10
2019-02-06T20:51:32.156Z,3.10
2019-02-06T20:54:03.024Z,3.10
2019-02-06T20:56:37.059Z,3.10
2019-02-06T20:59:06.983Z,3.00
2019-02-06T21:01:41.474Z,2.90
2019-02-06T21:04:12.853Z,2.90
2019-02-06T21:06:42.586Z,2.90
2019-02-06T21:09:15.093Z,2.90
2019-02-06T21:11:45.078Z,2.90
2019-02-06T21:14:17.236Z,2.80
2019-02-06T21:16:53.718Z,2.80
2019-02-06T21:19:29.988Z,2.80
2019-02-06T21:21:59.016Z,2.90
2019-02-06T21:24:27.718Z,2.90
2019-02-06T21:26:56.464Z,2.80
2019-02-06T21:29:28.781Z,2.80
2019-02-06T21:31:57.420Z,2.90
2019-02-06T21:34:33.699Z,2.90
2019-02-06T21:37:02.420Z,2.90
2019-02-06T21:39:35.843Z,2.80
2019-02-06T21:42:04.658Z,2.80
2019-02-06T21:44:33.294Z,2.80
2019-02-06T21:47:02.178Z,2.80
2019-02-06T21:49:31.304Z,2.70
2019-02-06T21:52:01.381Z,2.70
2019-02-06T21:54:33.089Z,2.70
2019-02-06T21:57:01.792Z,2.70
2019-02-06T21:59:32.915Z,2.60
2019-02-06T22:02:02.265Z,2.60
2019-02-06T22:04:32.695Z,2.70
2019-02-06T22:07:01.395Z,2.70
2019-02-06T22:09:34.469Z,2.70
2019-02-06T22:12:05.010Z,2.70
2019-02-06T22:14:33.723Z,2.80
2019-02-06T22:17:05.805Z,2.70
2019-02-06T22:19:35.786Z,2.70
2019-02-06T22:22:09.724Z,2.60
2019-02-06T22:24:38.428Z,2.70
2019-02-06T22:27:07.144Z,2.60
2019-02-06T22:29:36.181Z,2.60
2019-02-06T22:32:05.300Z,2.60
2019-02-06T22:34:34.637Z,2.60
2019-02-06T22:37:03.656Z,2.60
2019-02-06T22:39:32.351Z,2.60
2019-02-06T22:42:02.865Z,2.70
2019-02-06T22:44:32.256Z,2.70
2019-02-06T22:47:00.979Z,2.70
2019-02-06T22:49:29.754Z,2.70
2019-02-06T22:52:01.079Z,2.80
2019-02-06T22:54:31.213Z,2.80
2019-02-06T22:57:00.180Z,2.90
2019-02-06T22:59:32.084Z,2.80
2019-02-06T23:02:01.827Z,2.80
2019-02-06T23:04:35.245Z,2.70
2019-02-06T23:07:04.055Z,2.70
2019-02-06T23:09:32.790Z,2.70
2019-02-06T23:12:01.575Z,2.60
2019-02-06T23:14:30.617Z,2.60
2019-02-06T23:16:59.340Z,2.60
2019-02-06T23:19:28.271Z,2.60
2019-02-06T23:21:57.024Z,2.50
2019-02-06T23:24:25.743Z,2.50
2019-02-06T23:26:54.458Z,2.40
2019-02-06T23:29:35.711Z,2.40
2019-02-06T23:32:05.161Z,2.30
2019-02-06T23:34:33.725Z,2.30
2019-02-06T23:37:02.479Z,2.30
2019-02-06T23:39:34.166Z,2.30
2019-02-06T23:42:02.879Z,2.40
2019-02-06T23:44:31.961Z,2.40
2019-02-06T23:47:02.649Z,2.30
2019-02-06T23:49:31.567Z,2.30
2019-02-06T23:52:00.457Z,2.30
2019-02-06T23:54:30.275Z,2.30
2019-02-06T23:57:03.683Z,2.30
2019-02-06T23:59:34.764Z,2.30
